sensor_id;sensor_type;location;lat;lon;timestamp;P1;durP1;ratioP1;P2;durP2;ratioP2
46447;SDS011;32145;50.390;30.778;2022-09-30T00:02:05;17.90;;;11.88;;
46447;SDS011;32145;50.390;30.778;2022-09-30T00:04:50;17.70;;;11.38;;
46447;SDS011;32145;50.390;30.778;2022-09-30T00:07:34;16.38;;;10.57;;
46447;SDS011;32145;50.390;30.778;2022-09-30T00:10:19;14.60;;;10.50;;
46447;SDS011;32145;50.390;30.778;2022-09-30T00:13:02;16.10;;;10.45;;
46447;SDS011;32145;50.390;30.778;2022-09-30T00:15:46;14.57;;;9.98;;
46447;SDS011;32145;50.390;30.778;2022-09-30T00:18:32;15.35;;;9.40;;
46447;SDS011;32145;50.390;30.778;2022-09-30T00:21:16;15.10;;;10.15;;
46447;SDS011;32145;50.390;30.778;2022-09-30T00:24:00;13.82;;;9.52;;
46447;SDS011;32145;50.390;30.778;2022-09-30T00:26:45;14.00;;;9.18;;
46447;SDS011;32145;50.390;30.778;2022-09-30T00:29:30;12.80;;;8.85;;
46447;SDS011;32145;50.390;30.778;2022-09-30T00:32:14;18.60;;;9.48;;
46447;SDS011;32145;50.390;30.778;2022-09-30T00:35:00;12.10;;;9.13;;
46447;SDS011;32145;50.390;30.778;2022-09-30T00:37:44;12.65;;;9.10;;
46447;SDS011;32145;50.390;30.778;2022-09-30T00:40:28;12.02;;;8.55;;
46447;SDS011;32145;50.390;30.778;2022-09-30T00:43:13;11.00;;;8.20;;
46447;SDS011;32145;50.390;30.778;2022-09-30T00:45:59;9.85;;;7.53;;
46447;SDS011;32145;50.390;30.778;2022-09-30T00:48:43;10.10;;;7.38;;
46447;SDS011;32145;50.390;30.778;2022-09-30T00:51:32;10.88;;;7.88;;
46447;SDS011;32145;50.390;30.778;2022-09-30T00:57:06;9.27;;;6.93;;
46447;SDS011;32145;50.390;30.778;2022-09-30T00:59:51;10.05;;;6.35;;
46447;SDS011;32145;50.390;30.778;2022-09-30T01:02:35;11.32;;;7.15;;
46447;SDS011;32145;50.390;30.778;2022-09-30T01:05:19;11.30;;;6.40;;
46447;SDS011;32145;50.390;30.778;2022-09-30T01:08:05;9.50;;;6.80;;
46447;SDS011;32145;50.390;30.778;2022-09-30T01:10:51;11.30;;;7.22;;
46447;SDS011;32145;50.390;30.778;2022-09-30T01:13:36;9.55;;;6.75;;
46447;SDS011;32145;50.390;30.778;2022-09-30T01:16:25;8.75;;;6.60;;
46447;SDS011;32145;50.390;30.778;2022-09-30T01:19:23;10.13;;;6.80;;
46447;SDS011;32145;50.390;30.778;2022-09-30T01:22:24;10.63;;;6.38;;
46447;SDS011;32145;50.390;30.778;2022-09-30T01:25:26;9.80;;;6.40;;
46447;SDS011;32145;50.390;30.778;2022-09-30T01:32:01;10.13;;;6.55;;
46447;SDS011;32145;50.390;30.778;2022-09-30T01:34:52;13.00;;;7.25;;
46447;SDS011;32145;50.390;30.778;2022-09-30T01:37:49;9.15;;;7.13;;
46447;SDS011;32145;50.390;30.778;2022-09-30T01:40:42;8.50;;;6.43;;
46447;SDS011;32145;50.390;30.778;2022-09-30T01:43:36;9.60;;;6.45;;
46447;SDS011;32145;50.390;30.778;2022-09-30T01:46:27;9.05;;;6.72;;
46447;SDS011;32145;50.390;30.778;2022-09-30T01:49:19;14.18;;;6.25;;
46447;SDS011;32145;50.390;30.778;2022-09-30T01:52:11;10.07;;;6.50;;
46447;SDS011;32145;50.390;30.778;2022-09-30T01:54:59;11.38;;;6.70;;
46447;SDS011;32145;50.390;30.778;2022-09-30T01:57:51;10.07;;;6.93;;
46447;SDS011;32145;50.390;30.778;2022-09-30T02:00:43;10.13;;;6.88;;
46447;SDS011;32145;50.390;30.778;2022-09-30T02:03:34;10.88;;;7.30;;
46447;SDS011;32145;50.390;30.778;2022-09-30T02:06:24;12.60;;;7.18;;
46447;SDS011;32145;50.390;30.778;2022-09-30T02:09:13;9.85;;;7.07;;
46447;SDS011;32145;50.390;30.778;2022-09-30T02:12:04;12.77;;;7.45;;
46447;SDS011;32145;50.390;30.778;2022-09-30T02:14:53;10.80;;;7.53;;
46447;SDS011;32145;50.390;30.778;2022-09-30T02:17:43;12.38;;;7.45;;
46447;SDS011;32145;50.390;30.778;2022-09-30T02:20:32;11.40;;;7.18;;
46447;SDS011;32145;50.390;30.778;2022-09-30T02:23:22;9.68;;;6.88;;
46447;SDS011;32145;50.390;30.778;2022-09-30T02:26:12;9.68;;;6.85;;
46447;SDS011;32145;50.390;30.778;2022-09-30T02:29:03;9.85;;;7.18;;
46447;SDS011;32145;50.390;30.778;2022-09-30T02:31:51;10.40;;;7.10;;
46447;SDS011;32145;50.390;30.778;2022-09-30T02:34:40;11.57;;;7.45;;
46447;SDS011;32145;50.390;30.778;2022-09-30T02:37:30;8.63;;;6.57;;
46447;SDS011;32145;50.390;30.778;2022-09-30T02:40:19;9.98;;;6.85;;
46447;SDS011;32145;50.390;30.778;2022-09-30T02:43:09;11.00;;;7.38;;
46447;SDS011;32145;50.390;30.778;2022-09-30T02:45:55;10.65;;;7.57;;
46447;SDS011;32145;50.390;30.778;2022-09-30T02:48:51;9.85;;;7.50;;
46447;SDS011;32145;50.390;30.778;2022-09-30T02:51:44;8.70;;;6.82;;
46447;SDS011;32145;50.390;30.778;2022-09-30T02:54:40;9.43;;;6.63;;
46447;SDS011;32145;50.390;30.778;2022-09-30T03:00:29;9.65;;;6.65;;
46447;SDS011;32145;50.390;30.778;2022-09-30T03:03:14;10.20;;;7.13;;
46447;SDS011;32145;50.390;30.778;2022-09-30T03:06:02;10.13;;;6.50;;
46447;SDS011;32145;50.390;30.778;2022-09-30T03:08:46;10.20;;;7.43;;
46447;SDS011;32145;50.390;30.778;2022-09-30T03:11:31;13.02;;;7.60;;
46447;SDS011;32145;50.390;30.778;2022-09-30T03:14:27;11.13;;;7.93;;
46447;SDS011;32145;50.390;30.778;2022-09-30T03:20:45;9.70;;;7.78;;
46447;SDS011;32145;50.390;30.778;2022-09-30T03:23:55;13.15;;;8.00;;
46447;SDS011;32145;50.390;30.778;2022-09-30T03:26:59;11.30;;;7.50;;
46447;SDS011;32145;50.390;30.778;2022-09-30T03:29:56;11.63;;;7.93;;
46447;SDS011;32145;50.390;30.778;2022-09-30T03:32:48;11.13;;;7.78;;
46447;SDS011;32145;50.390;30.778;2022-09-30T03:35:53;16.02;;;8.88;;
46447;SDS011;32145;50.390;30.778;2022-09-30T03:38:44;11.40;;;8.63;;
46447;SDS011;32145;50.390;30.778;2022-09-30T03:41:34;11.38;;;8.32;;
46447;SDS011;32145;50.390;30.778;2022-09-30T03:44:26;14.35;;;8.20;;
46447;SDS011;32145;50.390;30.778;2022-09-30T03:47:17;13.25;;;8.23;;
46447;SDS011;32145;50.390;30.778;2022-09-30T03:50:05;11.75;;;7.57;;
46447;SDS011;32145;50.390;30.778;2022-09-30T03:52:52;13.68;;;8.70;;
46447;SDS011;32145;50.390;30.778;2022-09-30T03:55:44;12.43;;;8.25;;
46447;SDS011;32145;50.390;30.778;2022-09-30T03:58:30;13.95;;;8.15;;
46447;SDS011;32145;50.390;30.778;2022-09-30T04:01:16;11.15;;;7.85;;
46447;SDS011;32145;50.390;30.778;2022-09-30T04:04:02;10.32;;;7.55;;
46447;SDS011;32145;50.390;30.778;2022-09-30T04:06:46;11.38;;;8.40;;
46447;SDS011;32145;50.390;30.778;2022-09-30T04:09:30;11.05;;;8.27;;
46447;SDS011;32145;50.390;30.778;2022-09-30T04:12:14;10.35;;;8.27;;
46447;SDS011;32145;50.390;30.778;2022-09-30T04:14:58;10.55;;;8.18;;
46447;SDS011;32145;50.390;30.778;2022-09-30T04:17:42;11.85;;;7.88;;
46447;SDS011;32145;50.390;30.778;2022-09-30T04:20:27;12.02;;;7.95;;
46447;SDS011;32145;50.390;30.778;2022-09-30T04:23:12;12.70;;;8.80;;
46447;SDS011;32145;50.390;30.778;2022-09-30T04:25:55;14.60;;;9.10;;
46447;SDS011;32145;50.390;30.778;2022-09-30T04:28:40;14.25;;;9.13;;
46447;SDS011;32145;50.390;30.778;2022-09-30T04:31:26;15.68;;;9.93;;
46447;SDS011;32145;50.390;30.778;2022-09-30T04:34:10;14.32;;;9.02;;
46447;SDS011;32145;50.390;30.778;2022-09-30T04:36:56;15.25;;;9.85;;
46447;SDS011;32145;50.390;30.778;2022-09-30T04:39:39;17.05;;;10.52;;
46447;SDS011;32145;50.390;30.778;2022-09-30T04:42:23;16.88;;;10.73;;
46447;SDS011;32145;50.390;30.778;2022-09-30T04:45:08;15.95;;;11.20;;
46447;SDS011;32145;50.390;30.778;2022-09-30T04:47:53;18.05;;;11.43;;
46447;SDS011;32145;50.390;30.778;2022-09-30T04:50:38;14.48;;;10.82;;
46447;SDS011;32145;50.390;30.778;2022-09-30T04:53:23;18.20;;;10.45;;
46447;SDS011;32145;50.390;30.778;2022-09-30T04:56:07;17.05;;;11.30;;
46447;SDS011;32145;50.390;30.778;2022-09-30T04:58:51;19.67;;;12.02;;
46447;SDS011;32145;50.390;30.778;2022-09-30T05:01:35;19.30;;;12.18;;
46447;SDS011;32145;50.390;30.778;2022-09-30T05:04:19;17.77;;;12.10;;
46447;SDS011;32145;50.390;30.778;2022-09-30T05:07:03;16.70;;;12.30;;
46447;SDS011;32145;50.390;30.778;2022-09-30T05:09:49;19.02;;;12.32;;
46447;SDS011;32145;50.390;30.778;2022-09-30T05:12:33;18.60;;;13.15;;
46447;SDS011;32145;50.390;30.778;2022-09-30T05:15:17;18.00;;;13.02;;
46447;SDS011;32145;50.390;30.778;2022-09-30T05:18:01;20.02;;;11.93;;
46447;SDS011;32145;50.390;30.778;2022-09-30T05:20:47;19.48;;;12.52;;
46447;SDS011;32145;50.390;30.778;2022-09-30T05:23:32;17.02;;;12.02;;
46447;SDS011;32145;50.390;30.778;2022-09-30T05:26:17;15.35;;;11.35;;
46447;SDS011;32145;50.390;30.778;2022-09-30T05:29:01;23.92;;;14.10;;
46447;SDS011;32145;50.390;30.778;2022-09-30T05:31:46;21.48;;;14.00;;
46447;SDS011;32145;50.390;30.778;2022-09-30T05:34:30;27.52;;;14.90;;
46447;SDS011;32145;50.390;30.778;2022-09-30T05:37:13;29.88;;;15.80;;
46447;SDS011;32145;50.390;30.778;2022-09-30T05:39:57;24.45;;;15.93;;
46447;SDS011;32145;50.390;30.778;2022-09-30T05:42:43;25.75;;;15.75;;
46447;SDS011;32145;50.390;30.778;2022-09-30T05:45:27;23.75;;;16.20;;
46447;SDS011;32145;50.390;30.778;2022-09-30T05:48:11;27.77;;;16.15;;
46447;SDS011;32145;50.390;30.778;2022-09-30T05:50:55;23.45;;;15.65;;
46447;SDS011;32145;50.390;30.778;2022-09-30T05:53:40;25.45;;;16.05;;
46447;SDS011;32145;50.390;30.778;2022-09-30T05:56:24;23.58;;;16.40;;
46447;SDS011;32145;50.390;30.778;2022-09-30T05:59:09;27.20;;;16.75;;
46447;SDS011;32145;50.390;30.778;2022-09-30T06:01:53;22.88;;;16.10;;
46447;SDS011;32145;50.390;30.778;2022-09-30T06:04:37;26.40;;;15.75;;
46447;SDS011;32145;50.390;30.778;2022-09-30T06:07:21;23.95;;;15.27;;
46447;SDS011;32145;50.390;30.778;2022-09-30T06:10:06;22.02;;;15.27;;
46447;SDS011;32145;50.390;30.778;2022-09-30T06:12:51;29.80;;;16.27;;
46447;SDS011;32145;50.390;30.778;2022-09-30T06:15:36;23.83;;;16.67;;
46447;SDS011;32145;50.390;30.778;2022-09-30T06:18:21;24.20;;;16.35;;
46447;SDS011;32145;50.390;30.778;2022-09-30T06:21:05;26.42;;;16.60;;
46447;SDS011;32145;50.390;30.778;2022-09-30T06:23:51;21.67;;;15.18;;
46447;SDS011;32145;50.390;30.778;2022-09-30T06:26:35;28.65;;;17.00;;
46447;SDS011;32145;50.390;30.778;2022-09-30T06:29:19;24.20;;;17.08;;
46447;SDS011;32145;50.390;30.778;2022-09-30T06:32:05;24.30;;;16.02;;
46447;SDS011;32145;50.390;30.778;2022-09-30T06:34:49;20.67;;;15.18;;
46447;SDS011;32145;50.390;30.778;2022-09-30T06:37:33;20.67;;;14.52;;
46447;SDS011;32145;50.390;30.778;2022-09-30T06:40:17;19.95;;;15.25;;
46447;SDS011;32145;50.390;30.778;2022-09-30T06:43:01;19.00;;;14.93;;
46447;SDS011;32145;50.390;30.778;2022-09-30T06:45:46;20.30;;;15.50;;
46447;SDS011;32145;50.390;30.778;2022-09-30T06:48:32;20.20;;;14.85;;
46447;SDS011;32145;50.390;30.778;2022-09-30T06:51:16;24.17;;;16.33;;
46447;SDS011;32145;50.390;30.778;2022-09-30T06:54:00;24.05;;;16.35;;
46447;SDS011;32145;50.390;30.778;2022-09-30T06:56:45;22.13;;;16.35;;
46447;SDS011;32145;50.390;30.778;2022-09-30T06:59:29;23.63;;;16.90;;
46447;SDS011;32145;50.390;30.778;2022-09-30T07:02:13;22.60;;;17.05;;
46447;SDS011;32145;50.390;30.778;2022-09-30T07:04:58;22.10;;;16.55;;
46447;SDS011;32145;50.390;30.778;2022-09-30T07:07:43;21.30;;;16.23;;
46447;SDS011;32145;50.390;30.778;2022-09-30T07:10:27;21.23;;;16.27;;
46447;SDS011;32145;50.390;30.778;2022-09-30T07:13:11;21.83;;;17.15;;
46447;SDS011;32145;50.390;30.778;2022-09-30T07:15:55;21.73;;;15.90;;
46447;SDS011;32145;50.390;30.778;2022-09-30T07:18:39;20.75;;;16.13;;
46447;SDS011;32145;50.390;30.778;2022-09-30T07:21:25;20.27;;;15.15;;
46447;SDS011;32145;50.390;30.778;2022-09-30T07:24:10;21.10;;;16.27;;
46447;SDS011;32145;50.390;30.778;2022-09-30T07:26:54;20.95;;;16.45;;
46447;SDS011;32145;50.390;30.778;2022-09-30T07:29:38;20.63;;;16.25;;
46447;SDS011;32145;50.390;30.778;2022-09-30T07:32:22;20.05;;;15.43;;
46447;SDS011;32145;50.390;30.778;2022-09-30T07:35:06;19.30;;;15.65;;
46447;SDS011;32145;50.390;30.778;2022-09-30T07:37:52;22.83;;;16.27;;
46447;SDS011;32145;50.390;30.778;2022-09-30T07:40:36;22.45;;;17.23;;
46447;SDS011;32145;50.390;30.778;2022-09-30T07:43:20;24.45;;;18.35;;
46447;SDS011;32145;50.390;30.778;2022-09-30T07:46:05;20.33;;;16.52;;
46447;SDS011;32145;50.390;30.778;2022-09-30T07:48:52;22.85;;;17.67;;
46447;SDS011;32145;50.390;30.778;2022-09-30T07:51:37;22.17;;;16.88;;
46447;SDS011;32145;50.390;30.778;2022-09-30T07:54:24;22.40;;;16.63;;
46447;SDS011;32145;50.390;30.778;2022-09-30T07:57:11;23.00;;;16.90;;
46447;SDS011;32145;50.390;30.778;2022-09-30T07:59:55;23.40;;;16.50;;
46447;SDS011;32145;50.390;30.778;2022-09-30T08:02:38;22.80;;;17.75;;
46447;SDS011;32145;50.390;30.778;2022-09-30T08:05:22;25.85;;;18.30;;
46447;SDS011;32145;50.390;30.778;2022-09-30T08:08:07;26.50;;;17.90;;
46447;SDS011;32145;50.390;30.778;2022-09-30T08:10:52;22.77;;;16.77;;
46447;SDS011;32145;50.390;30.778;2022-09-30T08:13:41;23.05;;;17.50;;
46447;SDS011;32145;50.390;30.778;2022-09-30T08:16:25;24.73;;;17.88;;
46447;SDS011;32145;50.390;30.778;2022-09-30T08:19:12;23.90;;;17.63;;
46447;SDS011;32145;50.390;30.778;2022-09-30T08:21:57;25.52;;;17.40;;
46447;SDS011;32145;50.390;30.778;2022-09-30T08:24:44;25.92;;;17.75;;
46447;SDS011;32145;50.390;30.778;2022-09-30T08:27:29;25.30;;;17.92;;
46447;SDS011;32145;50.390;30.778;2022-09-30T08:30:13;23.08;;;16.85;;
46447;SDS011;32145;50.390;30.778;2022-09-30T08:32:57;25.42;;;19.08;;
46447;SDS011;32145;50.390;30.778;2022-09-30T08:35:41;23.55;;;17.17;;
46447;SDS011;32145;50.390;30.778;2022-09-30T08:38:25;23.17;;;17.80;;
46447;SDS011;32145;50.390;30.778;2022-09-30T08:41:11;26.55;;;18.90;;
46447;SDS011;32145;50.390;30.778;2022-09-30T08:44:09;25.67;;;18.52;;
46447;SDS011;32145;50.390;30.778;2022-09-30T08:47:09;26.45;;;18.20;;
46447;SDS011;32145;50.390;30.778;2022-09-30T08:50:12;24.80;;;18.23;;
46447;SDS011;32145;50.390;30.778;2022-09-30T08:53:02;28.52;;;19.58;;
46447;SDS011;32145;50.390;30.778;2022-09-30T08:55:51;26.50;;;18.38;;
46447;SDS011;32145;50.390;30.778;2022-09-30T08:58:40;26.40;;;18.58;;
46447;SDS011;32145;50.390;30.778;2022-09-30T09:01:29;26.10;;;19.45;;
46447;SDS011;32145;50.390;30.778;2022-09-30T09:04:16;26.13;;;18.65;;
46447;SDS011;32145;50.390;30.778;2022-09-30T09:07:03;25.00;;;18.10;;
46447;SDS011;32145;50.390;30.778;2022-09-30T09:09:56;24.73;;;17.92;;
46447;SDS011;32145;50.390;30.778;2022-09-30T09:12:49;28.55;;;19.00;;
46447;SDS011;32145;50.390;30.778;2022-09-30T09:15:42;23.95;;;18.10;;
46447;SDS011;32145;50.390;30.778;2022-09-30T09:18:37;25.88;;;18.75;;
46447;SDS011;32145;50.390;30.778;2022-09-30T09:21:29;25.85;;;18.73;;
46447;SDS011;32145;50.390;30.778;2022-09-30T09:24:23;25.63;;;19.42;;
46447;SDS011;32145;50.390;30.778;2022-09-30T09:27:12;26.55;;;18.40;;
46447;SDS011;32145;50.390;30.778;2022-09-30T09:30:03;24.73;;;17.60;;
46447;SDS011;32145;50.390;30.778;2022-09-30T09:32:50;29.48;;;18.83;;
46447;SDS011;32145;50.390;30.778;2022-09-30T09:35:40;25.85;;;19.52;;
46447;SDS011;32145;50.390;30.778;2022-09-30T09:38:32;24.13;;;19.17;;
46447;SDS011;32145;50.390;30.778;2022-09-30T09:41:25;26.02;;;18.08;;
46447;SDS011;32145;50.390;30.778;2022-09-30T09:44:17;26.52;;;18.05;;
46447;SDS011;32145;50.390;30.778;2022-09-30T09:47:08;24.35;;;18.55;;
46447;SDS011;32145;50.390;30.778;2022-09-30T09:49:54;22.80;;;18.02;;
46447;SDS011;32145;50.390;30.778;2022-09-30T09:52:48;24.67;;;18.15;;
46447;SDS011;32145;50.390;30.778;2022-09-30T09:55:43;25.25;;;18.85;;
46447;SDS011;32145;50.390;30.778;2022-09-30T09:58:28;24.02;;;18.67;;
46447;SDS011;32145;50.390;30.778;2022-09-30T10:01:18;26.48;;;19.15;;
46447;SDS011;32145;50.390;30.778;2022-09-30T10:04:09;24.30;;;18.40;;
46447;SDS011;32145;50.390;30.778;2022-09-30T10:06:56;25.95;;;18.90;;
46447;SDS011;32145;50.390;30.778;2022-09-30T10:09:43;23.67;;;18.65;;
46447;SDS011;32145;50.390;30.778;2022-09-30T10:12:27;23.63;;;17.98;;
46447;SDS011;32145;50.390;30.778;2022-09-30T10:15:21;23.48;;;17.73;;
46447;SDS011;32145;50.390;30.778;2022-09-30T10:18:13;24.42;;;18.38;;
46447;SDS011;32145;50.390;30.778;2022-09-30T10:21:01;24.85;;;17.92;;
46447;SDS011;32145;50.390;30.778;2022-09-30T10:23:49;22.95;;;17.77;;
46447;SDS011;32145;50.390;30.778;2022-09-30T10:26:42;23.67;;;18.20;;
46447;SDS011;32145;50.390;30.778;2022-09-30T10:29:27;22.15;;;16.50;;
46447;SDS011;32145;50.390;30.778;2022-09-30T10:32:13;23.25;;;16.42;;
46447;SDS011;32145;50.390;30.778;2022-09-30T10:34:58;23.65;;;17.23;;
46447;SDS011;32145;50.390;30.778;2022-09-30T10:37:49;22.30;;;16.15;;
46447;SDS011;32145;50.390;30.778;2022-09-30T10:40:34;22.20;;;16.90;;
46447;SDS011;32145;50.390;30.778;2022-09-30T10:43:21;22.75;;;16.98;;
46447;SDS011;32145;50.390;30.778;2022-09-30T10:46:08;21.13;;;17.13;;
46447;SDS011;32145;50.390;30.778;2022-09-30T10:48:52;21.73;;;16.17;;
46447;SDS011;32145;50.390;30.778;2022-09-30T10:51:40;19.98;;;16.45;;
46447;SDS011;32145;50.390;30.778;2022-09-30T10:57:33;19.90;;;15.70;;
46447;SDS011;32145;50.390;30.778;2022-09-30T11:00:21;20.02;;;15.63;;
46447;SDS011;32145;50.390;30.778;2022-09-30T11:03:07;19.48;;;15.15;;
46447;SDS011;32145;50.390;30.778;2022-09-30T11:05:55;23.75;;;15.80;;
46447;SDS011;32145;50.390;30.778;2022-09-30T11:08:44;21.90;;;15.43;;
46447;SDS011;32145;50.390;30.778;2022-09-30T11:11:35;21.02;;;14.98;;
46447;SDS011;32145;50.390;30.778;2022-09-30T11:14:25;21.88;;;16.13;;
46447;SDS011;32145;50.390;30.778;2022-09-30T11:17:22;21.95;;;15.60;;
46447;SDS011;32145;50.390;30.778;2022-09-30T11:20:13;22.27;;;16.40;;
46447;SDS011;32145;50.390;30.778;2022-09-30T11:23:03;22.30;;;15.30;;
46447;SDS011;32145;50.390;30.778;2022-09-30T11:25:56;20.63;;;14.68;;
46447;SDS011;32145;50.390;30.778;2022-09-30T11:28:54;21.33;;;15.88;;
46447;SDS011;32145;50.390;30.778;2022-09-30T11:31:54;19.45;;;15.35;;
46447;SDS011;32145;50.390;30.778;2022-09-30T11:34:52;19.23;;;15.32;;
46447;SDS011;32145;50.390;30.778;2022-09-30T11:37:48;21.33;;;14.68;;
46447;SDS011;32145;50.390;30.778;2022-09-30T11:40:50;21.92;;;17.05;;
46447;SDS011;32145;50.390;30.778;2022-09-30T11:43:46;22.45;;;17.15;;
46447;SDS011;32145;50.390;30.778;2022-09-30T11:50:09;25.25;;;19.60;;
46447;SDS011;32145;50.390;30.778;2022-09-30T11:53:10;30.00;;;19.88;;
46447;SDS011;32145;50.390;30.778;2022-09-30T11:56:05;28.60;;;20.90;;
46447;SDS011;32145;50.390;30.778;2022-09-30T11:58:59;32.17;;;22.48;;
46447;SDS011;32145;50.390;30.778;2022-09-30T12:01:48;33.53;;;24.13;;
46447;SDS011;32145;50.390;30.778;2022-09-30T12:04:37;31.20;;;23.60;;
46447;SDS011;32145;50.390;30.778;2022-09-30T12:07:28;33.55;;;22.95;;
46447;SDS011;32145;50.390;30.778;2022-09-30T12:10:18;28.63;;;21.92;;
46447;SDS011;32145;50.390;30.778;2022-09-30T12:13:08;29.13;;;20.33;;
46447;SDS011;32145;50.390;30.778;2022-09-30T12:15:55;28.30;;;21.50;;
46447;SDS011;32145;50.390;30.778;2022-09-30T12:18:41;29.45;;;22.38;;
46447;SDS011;32145;50.390;30.778;2022-09-30T12:21:31;29.63;;;22.05;;
46447;SDS011;32145;50.390;30.778;2022-09-30T12:24:22;25.80;;;19.75;;
46447;SDS011;32145;50.390;30.778;2022-09-30T12:27:14;28.48;;;21.25;;
46447;SDS011;32145;50.390;30.778;2022-09-30T12:36:07;30.33;;;21.75;;
46447;SDS011;32145;50.390;30.778;2022-09-30T12:39:08;30.45;;;21.65;;
46447;SDS011;32145;50.390;30.778;2022-09-30T12:48:53;29.77;;;21.50;;
46447;SDS011;32145;50.390;30.778;2022-09-30T12:51:41;29.27;;;21.17;;
46447;SDS011;32145;50.390;30.778;2022-09-30T12:54:27;28.45;;;20.58;;
46447;SDS011;32145;50.390;30.778;2022-09-30T12:57:16;30.23;;;21.48;;
46447;SDS011;32145;50.390;30.778;2022-09-30T13:00:14;29.05;;;21.08;;
46447;SDS011;32145;50.390;30.778;2022-09-30T13:03:02;27.65;;;19.90;;
46447;SDS011;32145;50.390;30.778;2022-09-30T13:05:54;27.25;;;20.73;;
46447;SDS011;32145;50.390;30.778;2022-09-30T13:08:43;26.15;;;19.88;;
46447;SDS011;32145;50.390;30.778;2022-09-30T13:11:45;27.77;;;19.60;;
46447;SDS011;32145;50.390;30.778;2022-09-30T13:14:31;27.73;;;19.13;;
46447;SDS011;32145;50.390;30.778;2022-09-30T13:17:24;29.23;;;20.08;;
46447;SDS011;32145;50.390;30.778;2022-09-30T13:23:35;28.23;;;19.35;;
46447;SDS011;32145;50.390;30.778;2022-09-30T13:26:36;25.45;;;19.33;;
46447;SDS011;32145;50.390;30.778;2022-09-30T13:29:33;25.80;;;18.83;;
46447;SDS011;32145;50.390;30.778;2022-09-30T13:32:32;25.20;;;18.02;;
46447;SDS011;32145;50.390;30.778;2022-09-30T13:38:16;23.92;;;17.25;;
46447;SDS011;32145;50.390;30.778;2022-09-30T13:41:02;25.77;;;17.58;;
46447;SDS011;32145;50.390;30.778;2022-09-30T13:43:52;23.15;;;17.42;;
46447;SDS011;32145;50.390;30.778;2022-09-30T13:46:42;22.58;;;17.15;;
46447;SDS011;32145;50.390;30.778;2022-09-30T13:49:34;22.20;;;16.10;;
46447;SDS011;32145;50.390;30.778;2022-09-30T13:52:25;25.27;;;15.85;;
46447;SDS011;32145;50.390;30.778;2022-09-30T13:55:16;26.33;;;18.17;;
46447;SDS011;32145;50.390;30.778;2022-09-30T13:58:05;23.65;;;16.38;;
46447;SDS011;32145;50.390;30.778;2022-09-30T14:01:01;22.05;;;14.27;;
46447;SDS011;32145;50.390;30.778;2022-09-30T14:04:07;20.73;;;15.43;;
46447;SDS011;32145;50.390;30.778;2022-09-30T14:07:15;18.58;;;14.38;;
46447;SDS011;32145;50.390;30.778;2022-09-30T14:10:10;24.25;;;16.95;;
46447;SDS011;32145;50.390;30.778;2022-09-30T14:13:16;24.00;;;17.98;;
46447;SDS011;32145;50.390;30.778;2022-09-30T14:16:34;29.25;;;19.45;;
46447;SDS011;32145;50.390;30.778;2022-09-30T14:19:43;27.80;;;19.48;;
46447;SDS011;32145;50.390;30.778;2022-09-30T14:22:43;26.38;;;18.75;;
46447;SDS011;32145;50.390;30.778;2022-09-30T14:25:29;27.52;;;18.92;;
46447;SDS011;32145;50.390;30.778;2022-09-30T14:28:23;26.92;;;19.45;;
46447;SDS011;32145;50.390;30.778;2022-09-30T14:31:14;27.77;;;18.75;;
46447;SDS011;32145;50.390;30.778;2022-09-30T14:33:58;25.65;;;18.55;;
46447;SDS011;32145;50.390;30.778;2022-09-30T14:36:43;24.02;;;17.92;;
46447;SDS011;32145;50.390;30.778;2022-09-30T14:39:29;24.23;;;18.73;;
46447;SDS011;32145;50.390;30.778;2022-09-30T14:42:18;25.02;;;19.10;;
46447;SDS011;32145;50.390;30.778;2022-09-30T14:45:08;23.95;;;17.98;;
46447;SDS011;32145;50.390;30.778;2022-09-30T14:47:59;25.13;;;16.98;;
46447;SDS011;32145;50.390;30.778;2022-09-30T14:50:49;24.17;;;16.95;;
46447;SDS011;32145;50.390;30.778;2022-09-30T14:53:39;22.70;;;16.92;;
46447;SDS011;32145;50.390;30.778;2022-09-30T14:56:26;24.83;;;18.17;;
46447;SDS011;32145;50.390;30.778;2022-09-30T14:59:14;25.35;;;17.13;;
46447;SDS011;32145;50.390;30.778;2022-09-30T15:02:01;25.77;;;17.73;;
46447;SDS011;32145;50.390;30.778;2022-09-30T15:04:48;24.27;;;17.05;;
46447;SDS011;32145;50.390;30.778;2022-09-30T15:07:34;23.85;;;17.27;;
46447;SDS011;32145;50.390;30.778;2022-09-30T15:10:22;26.88;;;17.58;;
46447;SDS011;32145;50.390;30.778;2022-09-30T15:13:09;32.08;;;18.15;;
46447;SDS011;32145;50.390;30.778;2022-09-30T15:15:54;25.88;;;18.48;;
46447;SDS011;32145;50.390;30.778;2022-09-30T15:18:42;26.75;;;17.67;;
46447;SDS011;32145;50.390;30.778;2022-09-30T15:21:29;27.63;;;18.23;;
46447;SDS011;32145;50.390;30.778;2022-09-30T15:24:14;26.67;;;18.13;;
46447;SDS011;32145;50.390;30.778;2022-09-30T15:27:00;26.00;;;17.92;;
46447;SDS011;32145;50.390;30.778;2022-09-30T15:29:54;27.95;;;19.52;;
46447;SDS011;32145;50.390;30.778;2022-09-30T15:32:39;25.95;;;18.58;;
46447;SDS011;32145;50.390;30.778;2022-09-30T15:35:25;25.90;;;18.98;;
46447;SDS011;32145;50.390;30.778;2022-09-30T15:38:14;30.52;;;19.70;;
46447;SDS011;32145;50.390;30.778;2022-09-30T15:41:02;27.70;;;19.02;;
46447;SDS011;32145;50.390;30.778;2022-09-30T15:43:49;27.42;;;19.15;;
46447;SDS011;32145;50.390;30.778;2022-09-30T15:46:36;27.70;;;18.63;;
46447;SDS011;32145;50.390;30.778;2022-09-30T15:49:30;28.70;;;19.13;;
46447;SDS011;32145;50.390;30.778;2022-09-30T15:52:20;27.55;;;19.33;;
46447;SDS011;32145;50.390;30.778;2022-09-30T15:55:34;28.80;;;20.65;;
46447;SDS011;32145;50.390;30.778;2022-09-30T15:58:34;30.13;;;22.17;;
46447;SDS011;32145;50.390;30.778;2022-09-30T16:01:20;28.73;;;21.33;;
46447;SDS011;32145;50.390;30.778;2022-09-30T16:04:09;30.48;;;20.48;;
46447;SDS011;32145;50.390;30.778;2022-09-30T16:06:55;27.73;;;20.13;;
46447;SDS011;32145;50.390;30.778;2022-09-30T16:09:40;30.02;;;20.67;;
46447;SDS011;32145;50.390;30.778;2022-09-30T16:12:30;29.45;;;20.98;;
46447;SDS011;32145;50.390;30.778;2022-09-30T16:15:17;32.17;;;21.13;;
46447;SDS011;32145;50.390;30.778;2022-09-30T16:18:13;27.65;;;20.88;;
46447;SDS011;32145;50.390;30.778;2022-09-30T16:21:01;30.23;;;20.20;;
46447;SDS011;32145;50.390;30.778;2022-09-30T16:23:47;31.05;;;20.10;;
46447;SDS011;32145;50.390;30.778;2022-09-30T16:26:32;32.72;;;21.50;;
46447;SDS011;32145;50.390;30.778;2022-09-30T16:29:17;32.28;;;22.05;;
46447;SDS011;32145;50.390;30.778;2022-09-30T16:32:02;30.33;;;21.40;;
46447;SDS011;32145;50.390;30.778;2022-09-30T16:34:46;30.40;;;22.05;;
46447;SDS011;32145;50.390;30.778;2022-09-30T16:37:32;39.35;;;24.83;;
46447;SDS011;32145;50.390;30.778;2022-09-30T16:40:17;43.70;;;29.92;;
46447;SDS011;32145;50.390;30.778;2022-09-30T16:43:03;40.88;;;27.20;;
46447;SDS011;32145;50.390;30.778;2022-09-30T16:45:48;38.88;;;26.55;;
46447;SDS011;32145;50.390;30.778;2022-09-30T16:48:32;37.75;;;26.77;;
46447;SDS011;32145;50.390;30.778;2022-09-30T16:51:17;39.45;;;27.27;;
46447;SDS011;32145;50.390;30.778;2022-09-30T16:54:03;37.55;;;26.23;;
46447;SDS011;32145;50.390;30.778;2022-09-30T16:56:47;37.42;;;26.23;;